sensor_id;sensor_type;location;lat;lon;timestamp;P1;P2;P0
76101;PMS7003;64830;46.910;6.354;2023-08-17T00:01:22;4.25;3.75;3.00
76101;PMS7003;64830;46.910;6.354;2023-08-17T00:03:48;6.00;6.00;5.00
76101;PMS7003;64830;46.910;6.354;2023-08-17T00:06:13;7.50;6.50;6.00
76101;PMS7003;64830;46.910;6.354;2023-08-17T00:08:39;8.00;6.50;5.50
76101;PMS7003;64830;46.910;6.354;2023-08-17T00:11:04;8.00;5.75;4.50
76101;PMS7003;64830;46.910;6.354;2023-08-17T00:13:30;8.25;6.25;4.75
76101;PMS7003;64830;46.910;6.354;2023-08-17T00:15:55;7.00;7.00;5.75
76101;PMS7003;64830;46.910;6.354;2023-08-17T00:18:20;10.75;8.75;7.50
76101;PMS7003;64830;46.910;6.354;2023-08-17T00:20:46;5.75;5.25;4.75
76101;PMS7003;64830;46.910;6.354;2023-08-17T00:23:11;6.50;6.25;4.75
76101;PMS7003;64830;46.910;6.354;2023-08-17T00:25:37;6.00;6.00;5.25
76101;PMS7003;64830;46.910;6.354;2023-08-17T00:28:02;5.75;5.75;4.75
76101;PMS7003;64830;46.910;6.354;2023-08-17T00:30:29;6.50;5.25;5.00
76101;PMS7003;64830;46.910;6.354;2023-08-17T00:32:54;8.75;7.50;6.25
76101;PMS7003;64830;46.910;6.354;2023-08-17T00:35:20;6.75;6.75;5.50
76101;PMS7003;64830;46.910;6.354;2023-08-17T00:37:45;6.50;6.50;5.00
76101;PMS7003;64830;46.910;6.354;2023-08-17T00:40:10;7.50;7.50;6.25
76101;PMS7003;64830;46.910;6.354;2023-08-17T00:42:36;9.00;8.25;5.00
76101;PMS7003;64830;46.910;6.354;2023-08-17T00:45:01;6.50;5.50;5.00
76101;PMS7003;64830;46.910;6.354;2023-08-17T00:47:27;7.50;6.75;5.00
76101;PMS7003;64830;46.910;6.354;2023-08-17T00:49:53;7.50;6.75;5.75
76101;PMS7003;64830;46.910;6.354;2023-08-17T00:52:19;9.50;8.00;5.00
76101;PMS7003;64830;46.910;6.354;2023-08-17T00:54:44;7.25;7.25;6.00
76101;PMS7003;64830;46.910;6.354;2023-08-17T00:57:09;8.75;8.75;5.50
76101;PMS7003;64830;46.910;6.354;2023-08-17T00:59:35;8.75;8.75;6.25
76101;PMS7003;64830;46.910;6.354;2023-08-17T01:02:01;7.75;6.00;5.00
76101;PMS7003;64830;46.910;6.354;2023-08-17T01:04:27;5.25;5.00;4.50
76101;PMS7003;64830;46.910;6.354;2023-08-17T01:06:53;7.00;7.00;6.00
76101;PMS7003;64830;46.910;6.354;2023-08-17T01:09:18;8.50;7.75;5.25
76101;PMS7003;64830;46.910;6.354;2023-08-17T01:11:56;8.50;8.50;7.50
76101;PMS7003;64830;46.910;6.354;2023-08-17T01:14:43;8.50;7.00;6.00
76101;PMS7003;64830;46.910;6.354;2023-08-17T01:17:25;6.50;6.50;5.00
76101;PMS7003;64830;46.910;6.354;2023-08-17T01:19:57;7.75;7.00;5.00
76101;PMS7003;64830;46.910;6.354;2023-08-17T01:22:24;7.50;6.25;5.00
76101;PMS7003;64830;46.910;6.354;2023-08-17T01:24:54;6.25;6.25;5.00
76101;PMS7003;64830;46.910;6.354;2023-08-17T01:27:22;9.75;8.50;7.50
76101;PMS7003;64830;46.910;6.354;2023-08-17T01:29:49;8.75;7.75;5.00
76101;PMS7003;64830;46.910;6.354;2023-08-17T01:32:16;6.00;6.00;4.25
76101;PMS7003;64830;46.910;6.354;2023-08-17T01:34:50;8.50;6.75;5.25
76101;PMS7003;64830;46.910;6.354;2023-08-17T01:37:23;8.25;6.50;5.50
76101;PMS7003;64830;46.910;6.354;2023-08-17T01:39:54;8.00;7.00;5.50
76101;PMS7003;64830;46.910;6.354;2023-08-17T01:42:21;6.50;6.50;4.75
76101;PMS7003;64830;46.910;6.354;2023-08-17T01:44:48;8.00;6.25;5.50
76101;PMS7003;64830;46.910;6.354;2023-08-17T01:47:14;10.00;8.50;6.75
76101;PMS7003;64830;46.910;6.354;2023-08-17T01:49:39;7.25;5.50;5.00
76101;PMS7003;64830;46.910;6.354;2023-08-17T01:52:05;9.00;8.00;6.00
76101;PMS7003;64830;46.910;6.354;2023-08-17T01:54:30;9.75;8.75;7.25
76101;PMS7003;64830;46.910;6.354;2023-08-17T01:56:56;9.25;9.25;7.50
76101;PMS7003;64830;46.910;6.354;2023-08-17T01:59:21;8.00;7.75;6.00
76101;PMS7003;64830;46.910;6.354;2023-08-17T02:01:47;9.25;8.75;7.75
76101;PMS7003;64830;46.910;6.354;2023-08-17T02:04:12;9.50;8.25;6.50
76101;PMS7003;64830;46.910;6.354;2023-08-17T02:06:37;7.50;7.25;5.00
76101;PMS7003;64830;46.910;6.354;2023-08-17T02:09:03;8.00;7.50;6.00
76101;PMS7003;64830;46.910;6.354;2023-08-17T02:11:28;8.25;8.25;7.00
76101;PMS7003;64830;46.910;6.354;2023-08-17T02:13:54;11.25;9.75;6.50
76101;PMS7003;64830;46.910;6.354;2023-08-17T02:16:19;9.75;8.50;5.75
76101;PMS7003;64830;46.910;6.354;2023-08-17T02:18:44;9.00;7.00;5.00
76101;PMS7003;64830;46.910;6.354;2023-08-17T02:21:10;9.00;8.00;6.25
76101;PMS7003;64830;46.910;6.354;2023-08-17T02:23:35;10.25;8.25;7.25
76101;PMS7003;64830;46.910;6.354;2023-08-17T02:26:00;9.50;8.25;7.25
76101;PMS7003;64830;46.910;6.354;2023-08-17T02:28:26;10.25;9.50;7.25
76101;PMS7003;64830;46.910;6.354;2023-08-17T02:30:55;9.50;7.75;6.75
76101;PMS7003;64830;46.910;6.354;2023-08-17T02:33:21;8.00;8.00;7.25
76101;PMS7003;64830;46.910;6.354;2023-08-17T02:35:50;8.50;8.50;7.50
76101;PMS7003;64830;46.910;6.354;2023-08-17T02:38:16;8.50;8.50;7.00
76101;PMS7003;64830;46.910;6.354;2023-08-17T02:40:41;9.75;9.75;7.75
76101;PMS7003;64830;46.910;6.354;2023-08-17T02:43:07;10.75;8.25;7.00
76101;PMS7003;64830;46.910;6.354;2023-08-17T02:45:33;11.00;10.25;7.50
76101;PMS7003;64830;46.910;6.354;2023-08-17T02:47:59;8.00;8.00;6.50
76101;PMS7003;64830;46.910;6.354;2023-08-17T02:50:24;8.25;7.25;6.25
76101;PMS7003;64830;46.910;6.354;2023-08-17T02:52:50;10.75;9.75;7.75
76101;PMS7003;64830;46.910;6.354;2023-08-17T02:55:15;9.75;8.50;6.25
76101;PMS7003;64830;46.910;6.354;2023-08-17T02:57:41;10.25;9.00;8.00
76101;PMS7003;64830;46.910;6.354;2023-08-17T03:00:06;11.25;10.75;7.50
76101;PMS7003;64830;46.910;6.354;2023-08-17T03:02:32;10.50;8.50;7.50
76101;PMS7003;64830;46.910;6.354;2023-08-17T03:04:57;9.00;9.00;8.00
76101;PMS7003;64830;46.910;6.354;2023-08-17T03:07:23;9.00;9.00;6.50
76101;PMS7003;64830;46.910;6.354;2023-08-17T03:09:48;10.25;8.50;6.75
76101;PMS7003;64830;46.910;6.354;2023-08-17T03:12:13;7.00;7.00;5.00
76101;PMS7003;64830;46.910;6.354;2023-08-17T03:14:39;7.00;6.25;5.00
76101;PMS7003;64830;46.910;6.354;2023-08-17T03:17:04;8.25;8.25;6.00
76101;PMS7003;64830;46.910;6.354;2023-08-17T03:19:30;8.00;8.00;5.75
76101;PMS7003;64830;46.910;6.354;2023-08-17T03:21:55;9.00;9.00;7.00
76101;PMS7003;64830;46.910;6.354;2023-08-17T03:24:21;8.00;8.00;7.00
76101;PMS7003;64830;46.910;6.354;2023-08-17T03:26:46;8.25;8.00;6.25
76101;PMS7003;64830;46.910;6.354;2023-08-17T03:29:11;9.50;9.25;6.75
76101;PMS7003;64830;46.910;6.354;2023-08-17T03:31:37;7.75;7.50;6.50
76101;PMS7003;64830;46.910;6.354;2023-08-17T03:34:02;8.00;7.75;5.75
76101;PMS7003;64830;46.910;6.354;2023-08-17T03:36:28;8.25;8.00;6.00
76101;PMS7003;64830;46.910;6.354;2023-08-17T03:38:53;9.75;9.75;7.75
76101;PMS7003;64830;46.910;6.354;2023-08-17T03:41:19;9.00;9.00;7.00
76101;PMS7003;64830;46.910;6.354;2023-08-17T03:43:44;7.00;7.00;5.00
76101;PMS7003;64830;46.910;6.354;2023-08-17T03:46:09;8.25;8.25;6.00
76101;PMS7003;64830;46.910;6.354;2023-08-17T03:48:35;8.75;8.50;6.00
76101;PMS7003;64830;46.910;6.354;2023-08-17T03:51:00;9.75;8.75;6.75
76101;PMS7003;64830;46.910;6.354;2023-08-17T03:53:26;7.00;6.25;5.00
76101;PMS7003;64830;46.910;6.354;2023-08-17T03:55:52;8.50;8.00;6.50
76101;PMS7003;64830;46.910;6.354;2023-08-17T03:58:17;10.75;9.00;6.50
76101;PMS7003;64830;46.910;6.354;2023-08-17T04:00:52;10.00;10.00;8.00
76101;PMS7003;64830;46.910;6.354;2023-08-17T04:03:19;8.00;8.00;7.00
76101;PMS7003;64830;46.910;6.354;2023-08-17T04:05:45;6.50;5.25;4.75
76101;PMS7003;64830;46.910;6.354;2023-08-17T04:08:10;8.25;8.00;7.00
76101;PMS7003;64830;46.910;6.354;2023-08-17T04:10:36;12.25;9.75;7.00
76101;PMS7003;64830;46.910;6.354;2023-08-17T04:13:01;7.25;7.00;6.50
76101;PMS7003;64830;46.910;6.354;2023-08-17T04:15:28;6.75;6.75;6.50
76101;PMS7003;64830;46.910;6.354;2023-08-17T04:17:53;8.00;7.75;6.00
76101;PMS7003;64830;46.910;6.354;2023-08-17T04:20:18;10.00;10.00;8.50
76101;PMS7003;64830;46.910;6.354;2023-08-17T04:22:44;6.50;5.50;5.50
76101;PMS7003;64830;46.910;6.354;2023-08-17T04:25:10;5.75;5.75;5.25
76101;PMS7003;64830;46.910;6.354;2023-08-17T04:27:36;17.50;17.00;14.00
76101;PMS7003;64830;46.910;6.354;2023-08-17T04:30:01;10.75;9.50;8.25
76101;PMS7003;64830;46.910;6.354;2023-08-17T04:32:27;8.00;8.00;7.00
76101;PMS7003;64830;46.910;6.354;2023-08-17T04:34:52;9.25;8.00;6.75
76101;PMS7003;64830;46.910;6.354;2023-08-17T04:37:18;9.75;9.00;6.00
76101;PMS7003;64830;46.910;6.354;2023-08-17T04:39:43;7.75;7.75;6.75
76101;PMS7003;64830;46.910;6.354;2023-08-17T04:42:09;8.75;8.75;7.00
76101;PMS7003;64830;46.910;6.354;2023-08-17T04:44:35;10.00;8.75;6.50
76101;PMS7003;64830;46.910;6.354;2023-08-17T04:47:00;9.00;9.00;7.00
76101;PMS7003;64830;46.910;6.354;2023-08-17T04:49:26;9.00;9.00;7.25
76101;PMS7003;64830;46.910;6.354;2023-08-17T04:51:51;10.00;10.00;8.25
76101;PMS7003;64830;46.910;6.354;2023-08-17T04:54:17;11.00;11.00;8.50
76101;PMS7003;64830;46.910;6.354;2023-08-17T04:56:43;7.00;7.00;7.00
76101;PMS7003;64830;46.910;6.354;2023-08-17T04:59:08;8.00;8.00;7.25
76101;PMS7003;64830;46.910;6.354;2023-08-17T05:01:34;10.00;9.50;7.50
76101;PMS7003;64830;46.910;6.354;2023-08-17T05:04:00;10.00;9.25;7.75
76101;PMS7003;64830;46.910;6.354;2023-08-17T05:06:27;11.00;10.00;8.00
76101;PMS7003;64830;46.910;6.354;2023-08-17T05:08:53;10.50;10.25;8.25
76101;PMS7003;64830;46.910;6.354;2023-08-17T05:11:18;9.75;9.75;7.00
76101;PMS7003;64830;46.910;6.354;2023-08-17T05:13:44;8.50;8.25;7.00
76101;PMS7003;64830;46.910;6.354;2023-08-17T05:16:09;10.00;9.75;8.00
76101;PMS7003;64830;46.910;6.354;2023-08-17T05:18:35;8.00;8.00;6.50
76101;PMS7003;64830;46.910;6.354;2023-08-17T05:21:00;9.00;8.50;7.00
76101;PMS7003;64830;46.910;6.354;2023-08-17T05:23:25;11.00;11.00;8.00
76101;PMS7003;64830;46.910;6.354;2023-08-17T05:25:51;6.00;5.00;5.00
76101;PMS7003;64830;46.910;6.354;2023-08-17T05:28:16;12.25;9.50;7.25
76101;PMS7003;64830;46.910;6.354;2023-08-17T05:30:42;10.75;10.00;7.25
76101;PMS7003;64830;46.910;6.354;2023-08-17T05:33:08;11.00;8.00;6.75
76101;PMS7003;64830;46.910;6.354;2023-08-17T05:35:33;10.00;8.75;7.00
76101;PMS7003;64830;46.910;6.354;2023-08-17T05:37:59;11.00;11.00;9.25
76101;PMS7003;64830;46.910;6.354;2023-08-17T05:40:24;10.50;8.00;6.50
76101;PMS7003;64830;46.910;6.354;2023-08-17T05:42:50;7.50;7.00;6.00
76101;PMS7003;64830;46.910;6.354;2023-08-17T05:45:16;10.00;10.00;8.25
76101;PMS7003;64830;46.910;6.354;2023-08-17T05:47:41;12.75;11.75;8.75
76101;PMS7003;64830;46.910;6.354;2023-08-17T05:50:06;12.25;11.75;9.50
76101;PMS7003;64830;46.910;6.354;2023-08-17T05:52:32;11.25;11.25;8.25
76101;PMS7003;64830;46.910;6.354;2023-08-17T05:54:57;8.25;8.00;7.25
76101;PMS7003;64830;46.910;6.354;2023-08-17T05:57:23;8.00;8.00;6.75
76101;PMS7003;64830;46.910;6.354;2023-08-17T05:59:48;9.00;9.00;8.00
76101;PMS7003;64830;46.910;6.354;2023-08-17T06:02:14;9.00;8.50;6.50
76101;PMS7003;64830;46.910;6.354;2023-08-17T06:04:39;12.25;10.50;7.75
76101;PMS7003;64830;46.910;6.354;2023-08-17T06:07:07;12.00;9.00;7.75
76101;PMS7003;64830;46.910;6.354;2023-08-17T06:09:32;10.00;10.00;7.25
76101;PMS7003;64830;46.910;6.354;2023-08-17T06:12:12;11.25;9.75;8.00
76101;PMS7003;64830;46.910;6.354;2023-08-17T06:14:38;8.25;8.25;6.75
76101;PMS7003;64830;46.910;6.354;2023-08-17T06:17:06;9.00;8.25;7.25
76101;PMS7003;64830;46.910;6.354;2023-08-17T06:19:32;9.75;9.75;7.25
76101;PMS7003;64830;46.910;6.354;2023-08-17T06:21:58;14.00;11.00;9.00
76101;PMS7003;64830;46.910;6.354;2023-08-17T06:24:23;8.75;8.75;7.75
76101;PMS7003;64830;46.910;6.354;2023-08-17T06:26:49;9.50;9.50;8.50
76101;PMS7003;64830;46.910;6.354;2023-08-17T06:29:14;11.25;11.25;9.00
76101;PMS7003;64830;46.910;6.354;2023-08-17T06:31:40;13.00;9.50;7.50
76101;PMS7003;64830;46.910;6.354;2023-08-17T06:34:05;8.25;8.00;7.50
76101;PMS7003;64830;46.910;6.354;2023-08-17T06:36:31;9.50;8.25;6.75
76101;PMS7003;64830;46.910;6.354;2023-08-17T06:38:57;9.00;8.25;6.75
76101;PMS7003;64830;46.910;6.354;2023-08-17T06:41:23;5.50;5.25;5.25
76101;PMS7003;64830;46.910;6.354;2023-08-17T06:43:49;10.50;7.50;5.25
76101;PMS7003;64830;46.910;6.354;2023-08-17T06:46:17;11.00;10.50;8.25
76101;PMS7003;64830;46.910;6.354;2023-08-17T06:48:43;8.50;8.50;7.00
76101;PMS7003;64830;46.910;6.354;2023-08-17T06:51:15;9.75;9.75;8.25
76101;PMS7003;64830;46.910;6.354;2023-08-17T06:53:40;9.00;9.00;7.75
76101;PMS7003;64830;46.910;6.354;2023-08-17T06:56:09;9.25;9.25;8.00
76101;PMS7003;64830;46.910;6.354;2023-08-17T06:58:35;11.00;11.00;8.75
76101;PMS7003;64830;46.910;6.354;2023-08-17T07:01:06;9.00;8.75;7.25
76101;PMS7003;64830;46.910;6.354;2023-08-17T07:03:47;7.75;7.75;4.50
76101;PMS7003;64830;46.910;6.354;2023-08-17T07:06:27;9.25;7.75;5.00
76101;PMS7003;64830;46.910;6.354;2023-08-17T07:08:54;9.75;9.75;8.00
76101;PMS7003;64830;46.910;6.354;2023-08-17T07:11:19;9.25;9.00;6.50
76101;PMS7003;64830;46.910;6.354;2023-08-17T07:13:45;11.50;9.25;8.00
76101;PMS7003;64830;46.910;6.354;2023-08-17T07:16:10;8.75;8.75;8.00
76101;PMS7003;64830;46.910;6.354;2023-08-17T07:18:35;9.25;8.75;7.25
76101;PMS7003;64830;46.910;6.354;2023-08-17T07:21:04;7.50;7.50;6.75
76101;PMS7003;64830;46.910;6.354;2023-08-17T07:23:32;10.75;9.50;6.75
76101;PMS7003;64830;46.910;6.354;2023-08-17T07:25:57;8.50;7.50;6.25
76101;PMS7003;64830;46.910;6.354;2023-08-17T07:28:26;9.00;9.00;7.00
76101;PMS7003;64830;46.910;6.354;2023-08-17T07:30:51;7.75;6.75;5.50
76101;PMS7003;64830;46.910;6.354;2023-08-17T07:33:17;8.50;7.75;6.75
76101;PMS7003;64830;46.910;6.354;2023-08-17T07:35:45;10.25;9.00;7.50
76101;PMS7003;64830;46.910;6.354;2023-08-17T07:38:11;10.00;9.25;6.75
76101;PMS7003;64830;46.910;6.354;2023-08-17T07:40:37;8.75;8.75;6.50
76101;PMS7003;64830;46.910;6.354;2023-08-17T07:43:03;10.00;9.25;7.25
76101;PMS7003;64830;46.910;6.354;2023-08-17T07:45:35;7.75;7.75;6.00
76101;PMS7003;64830;46.910;6.354;2023-08-17T07:48:00;10.00;10.00;8.00
76101;PMS7003;64830;46.910;6.354;2023-08-17T07:50:25;11.00;10.00;7.75
76101;PMS7003;64830;46.910;6.354;2023-08-17T07:52:51;6.75;5.75;4.25
76101;PMS7003;64830;46.910;6.354;2023-08-17T07:55:16;10.50;8.75;7.00
76101;PMS7003;64830;46.910;6.354;2023-08-17T07:57:42;7.50;7.50;5.75
76101;PMS7003;64830;46.910;6.354;2023-08-17T08:00:08;7.50;7.50;6.00
76101;PMS7003;64830;46.910;6.354;2023-08-17T08:02:34;6.00;4.00;4.00
76101;PMS7003;64830;46.910;6.354;2023-08-17T08:04:59;8.75;8.00;4.75
76101;PMS7003;64830;46.910;6.354;2023-08-17T08:07:25;8.75;7.00;6.25
76101;PMS7003;64830;46.910;6.354;2023-08-17T08:09:50;8.00;8.00;5.00
76101;PMS7003;64830;46.910;6.354;2023-08-17T08:12:16;8.25;8.25;6.50
76101;PMS7003;64830;46.910;6.354;2023-08-17T08:14:41;11.25;9.25;7.00
76101;PMS7003;64830;46.910;6.354;2023-08-17T08:17:06;8.00;8.00;6.75
76101;PMS7003;64830;46.910;6.354;2023-08-17T08:19:32;9.50;9.00;6.25
76101;PMS7003;64830;46.910;6.354;2023-08-17T08:21:58;8.75;8.75;6.75
76101;PMS7003;64830;46.910;6.354;2023-08-17T08:24:23;8.50;7.75;5.25
76101;PMS7003;64830;46.910;6.354;2023-08-17T08:26:49;9.00;9.00;7.50
76101;PMS7003;64830;46.910;6.354;2023-08-17T08:29:16;8.50;8.50;7.00
76101;PMS7003;64830;46.910;6.354;2023-08-17T08:31:41;7.50;7.25;6.25
76101;PMS7003;64830;46.910;6.354;2023-08-17T08:34:06;8.75;8.75;6.75
76101;PMS7003;64830;46.910;6.354;2023-08-17T08:36:32;10.50;8.50;7.25
76101;PMS7003;64830;46.910;6.354;2023-08-17T08:38:57;8.25;8.25;6.75
76101;PMS7003;64830;46.910;6.354;2023-08-17T08:41:23;8.75;8.00;6.00
76101;PMS7003;64830;46.910;6.354;2023-08-17T08:43:52;10.00;8.75;5.00
76101;PMS7003;64830;46.910;6.354;2023-08-17T08:46:18;10.00;8.75;7.00
76101;PMS7003;64830;46.910;6.354;2023-08-17T08:48:46;10.25;9.50;7.75
76101;PMS7003;64830;46.910;6.354;2023-08-17T08:51:16;9.25;9.25;8.00
76101;PMS7003;64830;46.910;6.354;2023-08-17T08:53:48;8.50;8.50;7.75
76101;PMS7003;64830;46.910;6.354;2023-08-17T08:56:25;7.25;6.75;6.00
76101;PMS7003;64830;46.910;6.354;2023-08-17T08:58:51;9.25;9.25;8.25
76101;PMS7003;64830;46.910;6.354;2023-08-17T09:01:17;8.25;7.75;6.75
76101;PMS7003;64830;46.910;6.354;2023-08-17T09:03:44;0.00;0.00;0.00
76101;PMS7003;64830;46.910;6.354;2023-08-17T09:06:12;10.25;10.25;8.00
76101;PMS7003;64830;46.910;6.354;2023-08-17T09:08:39;8.75;8.75;8.00
76101;PMS7003;64830;46.910;6.354;2023-08-17T09:11:05;9.25;8.00;6.50
76101;PMS7003;64830;46.910;6.354;2023-08-17T09:13:30;11.75;10.00;7.00
76101;PMS7003;64830;46.910;6.354;2023-08-17T09:15:57;9.50;7.25;6.00
76101;PMS7003;64830;46.910;6.354;2023-08-17T09:18:24;6.50;6.25;5.50
76101;PMS7003;64830;46.910;6.354;2023-08-17T09:20:51;7.75;7.75;6.00
76101;PMS7003;64830;46.910;6.354;2023-08-17T09:23:18;8.25;8.25;6.00
76101;PMS7003;64830;46.910;6.354;2023-08-17T09:25:45;7.50;7.50;6.00
76101;PMS7003;64830;46.910;6.354;2023-08-17T09:28:11;8.00;8.00;5.25
76101;PMS7003;64830;46.910;6.354;2023-08-17T09:33:24;5.00;5.00;4.00
76101;PMS7003;64830;46.910;6.354;2023-08-17T09:35:52;8.50;7.75;6.50
76101;PMS7003;64830;46.910;6.354;2023-08-17T09:38:19;10.50;9.75;6.75
76101;PMS7003;64830;46.910;6.354;2023-08-17T09:40:45;9.50;8.50;6.25
76101;PMS7003;64830;46.910;6.354;2023-08-17T09:43:11;8.25;8.25;6.75
76101;PMS7003;64830;46.910;6.354;2023-08-17T09:45:38;7.75;7.75;5.75
76101;PMS7003;64830;46.910;6.354;2023-08-17T09:48:04;9.25;7.25;5.00
76101;PMS7003;64830;46.910;6.354;2023-08-17T09:50:36;8.25;8.00;6.00
76101;PMS7003;64830;46.910;6.354;2023-08-17T09:53:04;7.00;6.50;5.25
76101;PMS7003;64830;46.910;6.354;2023-08-17T09:55:33;6.25;6.00;4.50
76101;PMS7003;64830;46.910;6.354;2023-08-17T09:57:59;7.00;7.00;5.00
76101;PMS7003;64830;46.910;6.354;2023-08-17T10:00:25;8.50;6.75;6.00
76101;PMS7003;64830;46.910;6.354;2023-08-17T10:02:52;5.50;5.50;4.50
76101;PMS7003;64830;46.910;6.354;2023-08-17T10:05:19;7.25;6.75;6.00
76101;PMS7003;64830;46.910;6.354;2023-08-17T10:07:53;9.00;7.00;5.50
76101;PMS7003;64830;46.910;6.354;2023-08-17T10:10:22;8.00;6.00;5.00
76101;PMS7003;64830;46.910;6.354;2023-08-17T10:12:59;6.75;6.75;5.00
76101;PMS7003;64830;46.910;6.354;2023-08-17T10:15:31;8.25;7.00;5.00
76101;PMS7003;64830;46.910;6.354;2023-08-17T10:21:06;5.50;5.50;5.00
76101;PMS7003;64830;46.910;6.354;2023-08-17T10:23:38;6.00;6.00;4.75
76101;PMS7003;64830;46.910;6.354;2023-08-17T10:26:05;6.75;6.00;4.50
76101;PMS7003;64830;46.910;6.354;2023-08-17T10:28:33;9.75;7.00;4.75
76101;PMS7003;64830;46.910;6.354;2023-08-17T10:30:59;4.25;4.25;4.00
76101;PMS7003;64830;46.910;6.354;2023-08-17T10:33:25;5.25;5.25;4.50
76101;PMS7003;64830;46.910;6.354;2023-08-17T10:35:52;6.25;6.25;5.00
76101;PMS7003;64830;46.910;6.354;2023-08-17T10:38:19;7.00;5.75;5.00
76101;PMS7003;64830;46.910;6.354;2023-08-17T10:40:44;6.25;6.25;4.00
76101;PMS7003;64830;46.910;6.354;2023-08-17T10:43:33;8.25;7.00;5.25
76101;PMS7003;64830;46.910;6.354;2023-08-17T10:46:20;7.00;7.00;4.25
76101;PMS7003;64830;46.910;6.354;2023-08-17T10:48:45;7.50;6.50;6.00
76101;PMS7003;64830;46.910;6.354;2023-08-17T10:51:11;4.25;3.00;1.00
76101;PMS7003;64830;46.910;6.354;2023-08-17T10:53:42;7.25;6.25;4.25
76101;PMS7003;64830;46.910;6.354;2023-08-17T10:56:12;6.00;6.00;4.00
76101;PMS7003;64830;46.910;6.354;2023-08-17T10:58:39;7.00;6.00;3.50
76101;PMS7003;64830;46.910;6.354;2023-08-17T11:01:06;7.25;6.00;4.00
76101;PMS7003;64830;46.910;6.354;2023-08-17T11:03:32;7.00;6.75;4.75
76101;PMS7003;64830;46.910;6.354;2023-08-17T11:05:58;5.00;5.00;4.00
76101;PMS7003;64830;46.910;6.354;2023-08-17T11:08:40;5.25;5.00;3.50
76101;PMS7003;64830;46.910;6.354;2023-08-17T11:11:16;7.00;5.00;4.00
76101;PMS7003;64830;46.910;6.354;2023-08-17T11:13:45;7.00;6.50;5.00
76101;PMS7003;64830;46.910;6.354;2023-08-17T11:16:14;4.75;4.75;4.00
76101;PMS7003;64830;46.910;6.354;2023-08-17T11:18:40;5.25;5.00;4.00
76101;PMS7003;64830;46.910;6.354;2023-08-17T11:21:06;5.00;5.00;4.00
76101;PMS7003;64830;46.910;6.354;2023-08-17T11:23:34;5.25;4.50;4.00
76101;PMS7003;64830;46.910;6.354;2023-08-17T11:26:01;5.00;4.25;3.50
76101;PMS7003;64830;46.910;6.354;2023-08-17T11:28:26;5.25;5.25;4.50
76101;PMS7003;64830;46.910;6.354;2023-08-17T11:30:58;4.50;4.00;3.75
76101;PMS7003;64830;46.910;6.354;2023-08-17T11:33:25;7.25;7.00;5.00
76101;PMS7003;64830;46.910;6.354;2023-08-17T11:35:54;6.00;5.00;3.50
76101;PMS7003;64830;46.910;6.354;2023-08-17T11:38:22;6.50;6.50;4.50
76101;PMS7003;64830;46.910;6.354;2023-08-17T11:40:51;5.50;5.25;4.25
76101;PMS7003;64830;46.910;6.354;2023-08-17T11:43:17;6.50;5.00;4.00
76101;PMS7003;64830;46.910;6.354;2023-08-17T11:45:43;5.00;5.00;4.00
76101;PMS7003;64830;46.910;6.354;2023-08-17T11:48:09;4.50;3.25;3.00
76101;PMS7003;64830;46.910;6.354;2023-08-17T11:50:34;4.50;4.50;3.50
76101;PMS7003;64830;46.910;6.354;2023-08-17T11:53:00;6.25;5.25;3.25
76101;PMS7003;64830;46.910;6.354;2023-08-17T11:55:26;4.75;4.50;3.00
76101;PMS7003;64830;46.910;6.354;2023-08-17T11:57:52;5.00;5.00;4.00
76101;PMS7003;64830;46.910;6.354;2023-08-17T12:00:21;4.25;4.00;3.00
76101;PMS7003;64830;46.910;6.354;2023-08-17T12:02:50;5.00;4.25;2.50
76101;PMS7003;64830;46.910;6.354;2023-08-17T12:05:20;4.00;3.25;3.00
76101;PMS7003;64830;46.910;6.354;2023-08-17T12:07:50;4.50;4.50;4.00
76101;PMS7003;64830;46.910;6.354;2023-08-17T12:10:17;5.75;5.75;3.75
76101;PMS7003;64830;46.910;6.354;2023-08-17T12:12:48;7.00;6.25;4.00
76101;PMS7003;64830;46.910;6.354;2023-08-17T12:15:14;3.00;3.00;2.25
76101;PMS7003;64830;46.910;6.354;2023-08-17T12:17:44;5.50;5.25;3.75
76101;PMS7003;64830;46.910;6.354;2023-08-17T12:20:16;5.75;5.00;4.00
76101;PMS7003;64830;46.910;6.354;2023-08-17T12:22:48;5.50;4.50;4.00
76101;PMS7003;64830;46.910;6.354;2023-08-17T12:25:13;4.50;4.00;3.00
76101;PMS7003;64830;46.910;6.354;2023-08-17T12:27:39;5.00;4.25;2.75
76101;PMS7003;64830;46.910;6.354;2023-08-17T12:30:11;3.50;3.50;2.50
76101;PMS7003;64830;46.910;6.354;2023-08-17T12:32:38;5.25;4.50;4.00
76101;PMS7003;64830;46.910;6.354;2023-08-17T12:35:03;5.00;5.00;4.00
76101;PMS7003;64830;46.910;6.354;2023-08-17T12:37:29;6.75;5.00;4.00
76101;PMS7003;64830;46.910;6.354;2023-08-17T12:39:54;4.00;4.00;3.00
76101;PMS7003;64830;46.910;6.354;2023-08-17T12:42:20;6.00;6.00;4.00
76101;PMS7003;64830;46.910;6.354;2023-08-17T12:44:45;7.50;6.00;4.25
76101;PMS7003;64830;46.910;6.354;2023-08-17T12:47:11;4.00;4.00;4.00
76101;PMS7003;64830;46.910;6.354;2023-08-17T12:49:36;5.00;5.00;4.00
76101;PMS7003;64830;46.910;6.354;2023-08-17T12:52:02;5.00;5.00;3.75
76101;PMS7003;64830;46.910;6.354;2023-08-17T12:54:27;5.00;5.00;3.50
76101;PMS7003;64830;46.910;6.354;2023-08-17T12:56:53;7.00;7.00;5.75
76101;PMS7003;64830;46.910;6.354;2023-08-17T12:59:18;5.50;4.50;4.00
76101;PMS7003;64830;46.910;6.354;2023-08-17T13:01:43;5.00;4.25;3.00
76101;PMS7003;64830;46.910;6.354;2023-08-17T13:04:09;8.50;6.50;4.00
76101;PMS7003;64830;46.910;6.354;2023-08-17T13:06:37;6.00;5.75;3.00
76101;PMS7003;64830;46.910;6.354;2023-08-17T13:09:03;6.25;5.00;4.00
76101;PMS7003;64830;46.910;6.354;2023-08-17T13:11:28;6.25;6.25;3.75
76101;PMS7003;64830;46.910;6.354;2023-08-17T13:13:53;5.00;4.50;3.00
76101;PMS7003;64830;46.910;6.354;2023-08-17T13:16:19;5.00;4.00;4.00
76101;PMS7003;64830;46.910;6.354;2023-08-17T13:18:46;6.00;5.50;3.25
76101;PMS7003;64830;46.910;6.354;2023-08-17T13:21:11;6.00;6.00;3.00
76101;PMS7003;64830;46.910;6.354;2023-08-17T13:23:40;7.50;4.00;3.00
76101;PMS7003;64830;46.910;6.354;2023-08-17T13:26:06;5.50;4.25;3.50
76101;PMS7003;64830;46.910;6.354;2023-08-17T13:28:31;5.00;5.00;3.00
76101;PMS7003;64830;46.910;6.354;2023-08-17T13:30:57;7.50;4.50;3.50
76101;PMS7003;64830;46.910;6.354;2023-08-17T13:33:22;6.25;3.25;2.00
76101;PMS7003;64830;46.910;6.354;2023-08-17T13:35:47;5.25;5.25;3.50
76101;PMS7003;64830;46.910;6.354;2023-08-17T13:38:13;2.25;2.25;2.00
76101;PMS7003;64830;46.910;6.354;2023-08-17T13:40:38;2.75;2.75;2.00
76101;PMS7003;64830;46.910;6.354;2023-08-17T13:43:04;3.00;3.00;1.50
76101;PMS7003;64830;46.910;6.354;2023-08-17T13:45:36;2.00;2.00;1.00
76101;PMS7003;64830;46.910;6.354;2023-08-17T13:48:02;2.00;2.00;1.25
76101;PMS7003;64830;46.910;6.354;2023-08-17T13:50:28;3.25;3.00;2.25
76101;PMS7003;64830;46.910;6.354;2023-08-17T13:52:53;2.25;2.25;1.00
76101;PMS7003;64830;46.910;6.354;2023-08-17T13:55:18;2.50;2.50;1.25
76101;PMS7003;64830;46.910;6.354;2023-08-17T13:57:44;2.25;2.25;0.50
76101;PMS7003;64830;46.910;6.354;2023-08-17T14:00:09;3.50;2.00;2.00
76101;PMS7003;64830;46.910;6.354;2023-08-17T14:02:35;2.00;1.00;1.00
76101;PMS7003;64830;46.910;6.354;2023-08-17T14:05:01;3.25;2.00;1.25
76101;PMS7003;64830;46.910;6.354;2023-08-17T14:07:26;1.75;1.75;1.00
76101;PMS7003;64830;46.910;6.354;2023-08-17T14:09:51;2.00;2.00;1.00
76101;PMS7003;64830;46.910;6.354;2023-08-17T14:12:17;3.50;3.50;1.75
76101;PMS7003;64830;46.910;6.354;2023-08-17T14:14:42;2.00;2.00;2.00
76101;PMS7003;64830;46.910;6.354;2023-08-17T14:17:08;2.00;1.00;1.00
76101;PMS7003;64830;46.910;6.354;2023-08-17T14:19:33;3.75;3.75;2.00
76101;PMS7003;64830;46.910;6.354;2023-08-17T14:22:02;4.50;3.75;1.50